.
WxDataArchive / Data Records for 2016-05-23
2016-05-22 May 2016 2016-05-24

Data Records for Monday, 23 May 2016

Time	Temp	Chill	HIndex	Humid	Dewpt	 Wind 	HiWind	WindDir	Rain 	Barom
-----	----	-----	------	-----	-----	------	------	-------	-----	-----
00:00	59.0	59.0	59.0	42	35.9	0	1	112	0.00	29.994 
00:05	58.6	58.6	58.6	44	36.8	0	0	---	0.00	29.994 
00:10	58.1	58.1	58.1	45	36.9	0	0	---	0.00	29.994 
00:15	57.6	57.6	57.6	46	37.0	0	0	---	0.00	29.994 
00:20	57.2	57.2	57.2	47	37.2	0	0	---	0.00	29.994 
00:25	56.7	56.7	56.7	48	37.2	0	0	---	0.00	29.994 
00:30	56.3	56.3	56.3	49	37.4	0	0	---	0.00	29.998 
00:35	55.9	55.9	55.9	51	38.0	0	0	---	0.00	29.998 
00:40	55.4	55.4	55.4	52	38.1	0	0	---	0.00	29.998 
00:45	55.0	55.0	55.0	53	38.2	0	0	---	0.00	29.996 
00:50	54.7	54.7	54.7	54	38.4	0	0	---	0.00	29.996 
00:55	54.2	54.2	54.2	54	37.9	0	0	---	0.00	29.996 
01:00	53.9	53.9	53.9	55	38.1	0	0	---	0.00	29.995 
01:05	53.6	53.6	53.6	56	38.3	0	0	---	0.00	29.995 
01:10	53.3	53.3	53.3	56	38.0	0	0	---	0.00	29.995 
01:15	52.9	52.9	52.9	57	38.1	0	0	---	0.00	29.996 
01:20	52.6	52.6	52.6	59	38.7	0	0	---	0.00	29.996 
01:25	52.5	52.5	52.5	60	39.0	0	0	---	0.00	29.996 
01:30	52.2	52.2	52.2	61	39.2	0	0	---	0.00	29.995 
01:35	51.9	51.9	51.9	62	39.3	0	0	---	0.00	29.995 
01:40	51.6	51.6	51.6	64	39.8	0	0	---	0.00	29.995 
01:45	51.3	51.3	51.3	66	40.3	0	0	---	0.00	29.992 
01:50	50.8	50.8	50.8	67	40.2	0	0	---	0.00	29.992 
01:55	50.5	50.5	50.5	68	40.3	0	0	---	0.00	29.992 
02:00	50.4	50.4	50.4	70	41.0	0	0	---	0.00	29.989 
02:05	50.1	50.1	50.1	70	40.7	0	0	---	0.00	29.989 
02:10	49.8	49.8	49.8	70	40.4	0	0	---	0.00	29.989 
02:15	49.6	49.6	49.6	71	40.6	0	0	---	0.00	29.986 
02:20	49.5	49.5	49.5	72	40.9	0	0	---	0.00	29.986 
02:25	49.4	49.4	49.4	73	41.1	0	0	---	0.00	29.986 
02:30	49.2	49.2	49.2	73	40.9	0	0	---	0.00	29.988 
02:35	49.1	49.1	49.1	73	40.8	0	0	---	0.00	29.988 
02:40	48.8	48.8	48.8	74	40.9	0	0	---	0.00	29.988 
02:45	48.6	48.6	48.6	75	41.0	0	0	---	0.00	29.986 
02:50	48.5	48.5	48.5	75	40.9	0	0	---	0.00	29.986 
02:55	48.3	48.3	48.3	76	41.1	0	0	---	0.00	29.986 
03:00	48.0	48.0	48.0	77	41.1	0	0	---	0.00	29.982 
03:05	47.9	47.9	47.9	77	41.0	0	0	---	0.00	29.982 
03:10	47.6	47.6	47.6	77	40.8	0	0	---	0.00	29.982 
03:15	47.6	47.6	47.6	78	41.1	0	0	---	0.00	29.982 
03:20	47.4	47.4	47.4	78	40.9	0	0	---	0.00	29.982 
03:25	47.3	47.3	47.3	79	41.1	0	0	---	0.00	29.982 
03:30	47.1	47.1	47.1	79	40.9	0	0	---	0.00	29.981 
03:35	47.0	47.0	47.0	80	41.2	0	0	---	0.00	29.981 
03:40	46.7	46.7	46.7	80	40.9	0	0	---	0.00	29.981 
03:45	46.5	46.5	46.5	80	40.7	0	0	---	0.00	29.976 
03:50	46.4	46.4	46.4	81	40.9	0	0	---	0.00	29.976 
03:55	46.2	46.2	46.2	81	40.7	0	0	---	0.00	29.976 
04:00	46.2	46.2	46.2	81	40.7	0	0	---	0.00	29.974 
04:05	46.1	46.1	46.1	82	40.9	0	0	---	0.00	29.974 
04:10	46.0	46.0	46.0	82	40.8	0	0	---	0.00	29.974 
04:15	45.8	45.8	45.8	82	40.6	0	0	---	0.00	29.973 
04:20	45.7	45.7	45.7	83	40.8	0	0	---	0.00	29.973 
04:25	45.5	45.5	45.5	83	40.6	0	0	---	0.00	29.973 
04:30	45.4	45.4	45.4	84	40.9	0	0	---	0.00	29.976 
04:35	45.2	45.2	45.2	84	40.7	0	0	---	0.00	29.976 
04:40	45.2	45.2	45.2	84	40.7	0	0	---	0.00	29.976 
04:45	45.1	45.1	45.1	84	40.6	0	0	---	0.00	29.985 
04:50	44.9	44.9	44.9	84	40.4	0	0	---	0.00	29.985 
04:55	44.6	44.6	44.6	84	40.1	0	0	---	0.00	29.985 
05:00	44.6	44.6	44.6	85	40.4	0	0	---	0.00	29.991 
05:05	44.5	44.5	44.5	85	40.3	0	0	---	0.00	29.991 
05:10	44.3	44.3	44.3	85	40.1	0	0	---	0.00	29.991 
05:15	44.2	44.2	44.2	85	40.0	0	0	---	0.00	29.997 
05:20	44.1	44.1	44.1	86	40.2	0	0	---	0.00	29.997 
05:25	44.1	44.1	44.1	86	40.2	0	0	---	0.00	29.997 
05:30	44.1	44.1	44.1	87	40.5	0	0	---	0.00	30.005 
05:35	44.1	44.1	44.1	87	40.5	0	0	---	0.00	30.005 
05:40	43.9	43.9	43.9	87	40.3	0	0	---	0.00	30.005 
05:45	43.9	43.9	43.9	88	40.6	0	0	---	0.00	30.011 
05:50	43.9	43.9	43.9	88	40.6	0	0	---	0.00	30.011 
05:55	43.8	43.8	43.8	88	40.5	0	0	---	0.00	30.011 
06:00	43.5	43.5	43.5	88	40.2	0	0	---	0.00	30.021 
06:05	43.3	43.3	43.3	88	40.0	0	1	90	0.00	30.021 
06:10	43.2	43.2	43.2	88	39.9	0	0	---	0.00	30.021 
06:15	43.2	43.2	43.2	88	39.9	0	0	---	0.00	30.024 
06:20	43.1	43.1	43.1	89	40.1	0	0	---	0.00	30.024 
06:25	43.1	43.1	43.1	89	40.1	0	0	---	0.00	30.024 
06:30	42.9	42.9	42.9	89	39.9	0	0	---	0.00	30.031 
06:35	42.8	42.8	42.8	89	39.8	0	0	---	0.00	30.031 
06:40	42.8	42.8	42.8	89	39.8	0	0	---	0.00	30.031 
06:45	42.8	42.8	42.8	89	39.8	0	0	---	0.00	30.038 
06:50	42.8	42.8	42.8	90	40.1	0	0	---	0.00	30.038 
06:55	42.9	42.9	42.9	90	40.2	0	0	---	0.00	30.038 
07:00	43.1	43.1	43.1	90	40.4	0	0	---	0.00	30.042 
07:05	43.2	43.2	43.2	90	40.5	0	0	---	0.00	30.042 
07:10	43.3	43.3	43.3	90	40.6	0	0	---	0.00	30.042 
07:15	43.6	43.6	43.6	91	41.1	0	0	---	0.00	30.041 
07:20	43.9	43.9	43.9	91	41.4	0	0	---	0.00	30.041 
07:25	44.2	44.2	44.2	91	41.7	0	0	---	0.00	30.041 
07:30	44.8	44.8	44.8	92	42.6	0	0	---	0.00	30.053 
07:35	45.5	45.5	45.5	92	43.3	0	0	---	0.00	30.053 
07:40	46.5	46.5	46.5	92	44.3	0	0	---	0.00	30.053 
07:45	47.3	47.3	47.3	92	45.1	0	0	---	0.00	30.054 
07:50	48.2	48.2	48.2	91	45.7	0	0	---	0.00	30.054 
07:55	49.1	49.1	49.1	91	46.6	0	0	---	0.00	30.054 
08:00	50.1	50.1	50.1	90	47.3	0	0	---	0.00	30.064 
08:05	51.3	51.3	51.3	90	48.5	0	0	---	0.00	30.064 
08:10	52.6	52.6	52.6	86	48.5	0	0	---	0.00	30.064 
08:15	53.2	53.2	53.2	83	48.2	0	1	90	0.00	30.070 
08:20	53.8	53.8	53.8	79	47.4	0	0	---	0.00	30.070 
08:25	54.4	54.4	54.4	75	46.6	0	1	90	0.00	30.070 
08:30	55.4	55.4	55.4	71	46.2	0	0	---	0.00	30.067 
08:35	56.2	56.2	56.2	66	45.0	0	1	90	0.00	30.067 
08:40	56.9	56.9	56.9	64	44.8	0	1	90	0.00	30.067 
08:45	57.3	57.3	57.3	60	43.5	0	1	90	0.00	30.071 
08:50	57.8	57.8	57.8	59	43.6	0	1	90	0.00	30.071 
08:55	58.3	58.3	58.3	56	42.7	0	2	90	0.00	30.071 
09:00	58.9	58.9	58.9	53	41.8	0	1	90	0.00	30.064 
09:05	59.3	59.3	59.3	50	40.7	0	1	90	0.00	30.064 
09:10	60.5	60.5	60.5	50	41.8	0	0	---	0.00	30.064 
09:15	62.3	62.3	62.3	47	41.8	0	0	---	0.00	30.066 
09:20	63.2	63.2	63.2	41	39.1	0	0	---	0.00	30.066 
09:25	64.2	64.2	64.2	40	39.4	0	0	---	0.00	30.066 
09:30	64.7	64.7	64.7	31	33.4	0	1	90	0.00	30.073 
09:35	66.1	66.1	66.1	30	33.8	0	1	90	0.00	30.073 
09:40	66.6	66.6	66.6	29	33.3	0	2	90	0.00	30.073 
09:45	66.8	66.8	66.8	29	33.5	0	1	90	0.00	30.072 
09:50	66.6	66.6	66.6	28	32.5	0	3	90	0.00	30.072 
09:55	66.6	66.6	66.6	25	29.7	0	3	90	0.00	30.072 
10:00	67.3	67.3	67.3	27	32.2	0	1	90	0.00	30.065 
10:05	67.6	67.6	67.6	28	33.3	0	2	90	0.00	30.065 
10:10	67.4	67.4	67.4	28	33.2	0	1	90	0.00	30.065 
10:15	67.9	67.9	67.9	31	36.1	0	1	90	0.00	30.064 
10:20	67.9	67.9	67.9	30	35.3	0	1	90	0.00	30.064 
10:25	67.6	67.6	67.6	29	34.2	0	1	90	0.00	30.064 
10:30	67.6	67.6	67.6	29	34.2	0	2	90	0.00	30.060 
10:35	67.6	67.6	67.6	28	33.3	0	2	90	0.00	30.060 
10:40	67.8	67.8	67.8	30	35.2	1	3	90	0.00	30.060 
10:45	68.1	68.1	68.1	31	36.3	0	1	90	0.00	30.051 
10:50	68.6	68.6	68.6	27	33.3	0	3	90	0.00	30.051 
10:55	68.9	68.9	68.9	27	33.5	1	4	90	0.00	30.051 
11:00	68.9	68.9	68.9	27	33.5	1	4	90	0.00	30.046 
11:05	68.9	68.9	68.9	27	33.5	0	2	90	0.00	30.046 
11:10	69.6	69.6	69.6	28	35.0	0	2	90	0.00	30.046 
11:15	70.3	70.3	70.3	28	35.6	0	3	90	0.00	30.048 
11:20	70.3	70.3	70.3	27	34.7	1	3	90	0.00	30.048 
11:25	70.1	70.1	70.1	29	36.4	1	5	90	0.00	30.048 
11:30	69.8	69.8	69.8	28	35.2	1	4	90	0.00	30.045 
11:35	69.8	69.8	69.8	31	37.8	1	4	90	0.00	30.045 
11:40	69.8	69.8	69.8	30	37.0	1	3	90	0.00	30.045 
11:45	70.1	70.1	70.1	28	35.5	0	3	90	0.00	30.044 
11:50	70.6	70.6	70.6	27	35.0	1	3	90	0.00	30.044 
11:55	70.6	70.6	70.6	27	35.0	1	4	90	0.00	30.044 
12:00	70.3	70.3	70.3	28	35.6	1	2	90	0.00	30.041 
12:05	70.8	70.8	70.8	29	37.0	0	2	90	0.00	30.041 
12:10	70.9	70.9	70.9	24	32.3	2	4	90	0.00	30.041 
12:15	70.9	70.9	70.9	25	33.3	1	4	90	0.00	30.037 
12:20	71.3	71.3	71.3	25	33.7	1	3	90	0.00	30.037 
12:25	71.8	71.8	71.8	26	35.1	0	3	90	0.00	30.037 
12:30	72.5	72.5	72.5	25	34.7	0	2	90	0.00	30.033 
12:35	72.8	72.8	72.8	24	33.9	0	2	90	0.00	30.033 
12:40	73.0	73.0	73.0	22	31.9	1	4	90	0.00	30.033 
12:45	72.7	72.7	72.7	24	33.8	1	4	90	0.00	30.029 
12:50	72.3	72.3	72.3	22	31.3	0	2	90	0.00	30.029 
12:55	72.7	72.7	72.7	21	30.5	1	3	90	0.00	30.029 
13:00	72.8	72.8	72.8	23	32.8	1	4	90	0.00	30.017 
13:05	73.0	73.0	73.0	23	33.0	0	3	90	0.00	30.017 
13:10	73.3	73.3	73.3	21	31.0	1	5	90	0.00	30.017 
13:15	73.7	73.7	73.7	22	32.5	0	1	90	0.00	30.019 
13:20	74.0	74.0	74.0	19	29.1	0	2	90	0.00	30.019 
13:25	74.4	74.4	74.4	18	28.1	1	2	90	0.00	30.019 
13:30	74.4	74.4	74.4	22	33.1	0	2	90	0.00	30.019 
13:35	74.2	74.2	74.2	19	29.3	0	3	90	0.00	30.019 
13:40	74.2	74.2	74.2	21	31.7	1	5	90	0.00	30.019 
13:45	74.0	74.0	74.0	20	30.4	1	3	90	0.00	30.018 
13:50	73.7	73.7	73.7	19	28.9	2	5	68	0.00	30.018 
13:55	73.9	73.9	73.9	20	30.3	1	3	68	0.00	30.018 
14:00	74.0	74.0	74.0	20	30.4	1	4	68	0.00	30.016 
14:05	74.0	74.0	74.0	20	30.4	1	2	68	0.00	30.016 
14:10	74.2	74.2	74.2	22	32.9	0	3	68	0.00	30.016 
14:15	74.7	74.7	74.7	23	34.4	0	1	68	0.00	30.006 
14:20	75.4	75.4	76.5	23	35.0	0	1	68	0.00	30.006 
14:25	75.6	75.6	76.4	21	32.9	1	3	68	0.00	30.006 
14:30	76.0	76.0	76.7	23	35.5	0	2	68	0.00	30.003 
14:35	76.1	76.1	76.5	20	32.1	0	2	68	0.00	30.003 
14:40	76.1	76.1	76.5	20	32.1	0	2	68	0.00	30.003 
14:45	75.6	75.6	76.2	20	31.7	1	3	292	0.00	30.004 
14:50	75.8	75.8	76.7	24	36.4	0	1	292	0.00	30.004 
14:55	76.3	76.3	76.8	22	34.6	0	2	292	0.00	30.004 
15:00	76.7	76.7	77.0	23	36.1	0	3	292	0.00	30.003 
15:05	77.0	77.0	77.1	22	35.2	0	2	292	0.00	30.003 
15:10	77.4	77.4	77.0	18	30.6	0	2	292	0.00	30.003 
15:15	77.2	77.2	76.8	17	29.0	1	4	338	0.00	30.001 
15:20	76.5	76.5	76.9	22	34.8	1	3	338	0.00	30.001 
15:25	76.8	76.8	77.2	24	37.3	1	9	90	0.00	30.001 
15:30	77.0	77.0	77.2	23	36.3	1	3	90	0.00	29.994 
15:35	77.2	77.2	76.9	19	31.7	0	2	90	0.00	29.994 
15:40	77.0	77.0	76.8	19	31.6	0	2	90	0.00	29.994 
15:45	77.2	77.2	77.2	22	35.4	0	1	90	0.00	29.988 
15:50	77.6	77.6	77.1	18	30.7	1	3	90	0.00	29.988 
15:55	77.4	77.4	77.1	20	33.2	0	3	90	0.00	29.988 
16:00	77.4	77.4	77.2	21	34.4	0	3	90	0.00	29.982 
16:05	77.2	77.2	77.0	20	33.0	1	3	90	0.00	29.982 
16:10	77.4	77.4	77.0	19	31.9	0	2	90	0.00	29.982 
16:15	77.7	77.7	77.3	20	33.4	0	1	90	0.00	29.975 
16:20	78.3	78.3	77.7	22	36.3	0	1	90	0.00	29.975 
16:25	79.0	79.0	78.0	20	34.5	0	1	90	0.00	29.975 
16:30	79.6	79.6	78.5	22	37.4	0	1	90	0.00	29.969 
16:35	79.8	79.8	78.4	19	33.9	0	1	90	0.00	29.969 
16:40	79.8	79.8	78.5	21	36.4	0	1	90	0.00	29.969 
16:45	79.8	79.8	78.7	24	39.8	0	1	90	0.00	29.965 
16:50	79.8	79.8	78.5	21	36.4	0	1	90	0.00	29.965 
16:55	79.4	79.4	78.2	19	33.5	0	3	90	0.00	29.965 
17:00	79.2	79.2	78.1	19	33.4	0	1	90	0.00	29.961 
17:05	78.8	78.8	78.0	22	36.7	1	2	90	0.00	29.961 
17:10	78.3	78.3	77.7	21	35.1	0	2	90	0.00	29.961 
17:15	78.1	78.1	77.8	25	39.4	0	1	90	0.00	29.962 
17:20	78.1	78.1	77.7	23	37.3	0	2	90	0.00	29.962 
17:25	78.5	78.5	77.8	21	35.3	0	2	90	0.00	29.962 
17:30	78.8	78.8	78.0	22	36.7	0	1	90	0.00	29.957 
17:35	78.8	78.8	77.9	20	34.3	0	2	90	0.00	29.957 
17:40	78.6	78.6	77.8	20	34.2	0	1	90	0.00	29.957 
17:45	78.3	78.3	77.7	21	35.1	0	1	90	0.00	29.955 
17:50	78.1	78.1	77.5	20	33.7	0	1	90	0.00	29.955 
17:55	77.9	77.9	77.7	25	39.2	0	1	90	0.00	29.955 
18:00	77.6	77.6	77.3	21	34.6	0	1	90	0.00	29.956 
18:05	77.4	77.4	77.1	20	33.2	0	1	90	0.00	29.956 
18:10	77.2	77.2	77.2	22	35.4	0	0	---	0.00	29.956 
18:15	77.0	77.0	77.1	22	35.2	0	2	90	0.00	29.952 
18:20	76.8	76.8	76.9	21	33.9	0	1	90	0.00	29.952 
18:25	76.7	76.7	76.8	20	32.6	0	1	90	0.00	29.952 
18:30	76.5	76.5	76.7	20	32.4	0	3	90	0.00	29.948 
18:35	76.3	76.3	76.7	21	33.5	0	2	90	0.00	29.948 
18:40	76.1	76.1	76.6	21	33.3	0	1	90	0.00	29.948 
18:45	76.0	76.0	76.5	21	33.2	0	2	90	0.00	29.949 
18:50	75.8	75.8	76.4	21	33.1	0	1	90	0.00	29.949 
18:55	75.8	75.8	76.4	21	33.1	0	0	---	0.00	29.949 
19:00	75.6	75.6	76.4	21	32.9	0	0	---	0.00	29.945 
19:05	75.4	75.4	76.3	21	32.7	0	0	---	0.00	29.945 
19:10	75.4	75.4	76.4	22	33.9	0	1	90	0.00	29.945 
19:15	75.3	75.3	76.2	21	32.7	0	1	90	0.00	29.938 
19:20	75.3	75.3	76.2	21	32.7	0	1	90	0.00	29.938 
19:25	75.1	75.1	76.2	22	33.6	0	0	---	0.00	29.938 
19:30	74.9	74.9	74.9	21	32.3	0	1	90	0.00	29.939 
19:35	74.9	74.9	74.9	22	33.5	0	0	---	0.00	29.939 
19:40	74.7	74.7	74.7	23	34.4	0	0	---	0.00	29.939 
19:45	74.6	74.6	74.6	24	35.4	0	0	---	0.00	29.942 
19:50	74.4	74.4	74.4	24	35.2	0	0	---	0.00	29.942 
19:55	74.4	74.4	74.4	24	35.2	0	0	---	0.00	29.942 
20:00	74.2	74.2	74.2	24	35.1	0	0	---	0.00	29.951 
20:05	74.0	74.0	74.0	24	34.9	0	0	---	0.00	29.951 
20:10	73.9	73.9	73.9	25	35.9	0	0	---	0.00	29.951 
20:15	73.5	73.5	73.5	25	35.5	0	0	---	0.00	29.946 
20:20	73.2	73.2	73.2	25	35.3	0	0	---	0.00	29.946 
20:25	72.8	72.8	72.8	26	35.9	0	0	---	0.00	29.946 
20:30	72.5	72.5	72.5	27	36.6	0	0	---	0.00	29.948 
20:35	72.1	72.1	72.1	28	37.2	0	0	---	0.00	29.948 
20:40	71.6	71.6	71.6	30	38.5	0	0	---	0.00	29.948 
20:45	71.1	71.1	71.1	29	37.2	0	0	---	0.00	29.949 
20:50	70.4	70.4	70.4	31	38.3	0	0	---	0.00	29.949 
20:55	69.8	69.8	69.8	30	37.0	0	0	---	0.00	29.949 
21:00	69.3	69.3	69.3	32	38.2	0	0	---	0.00	29.949 
21:05	68.4	68.4	68.4	31	36.6	0	0	---	0.00	29.949 
21:10	67.8	67.8	67.8	32	36.9	0	0	---	0.00	29.949 
21:15	67.3	67.3	67.3	36	39.4	0	0	---	0.00	29.946 
21:20	66.6	66.6	66.6	34	37.3	0	0	---	0.00	29.946 
21:25	66.0	66.0	66.0	35	37.6	0	0	---	0.00	29.946 
21:30	65.3	65.3	65.3	39	39.7	0	0	---	0.00	29.950 
21:35	64.8	64.8	64.8	40	39.9	0	0	---	0.00	29.950 
21:40	64.2	64.2	64.2	42	40.6	0	0	---	0.00	29.950 
21:45	63.7	63.7	63.7	42	40.2	0	0	---	0.00	29.965 
21:50	63.2	63.2	63.2	43	40.3	0	0	---	0.00	29.965 
21:55	62.7	62.7	62.7	43	39.9	0	0	---	0.00	29.965 
22:00	62.3	62.3	62.3	46	41.3	0	0	---	0.00	29.968 
22:05	61.8	61.8	61.8	48	41.9	0	0	---	0.00	29.968 
22:10	61.3	61.3	61.3	50	42.5	0	0	---	0.00	29.968 
22:15	61.0	61.0	61.0	50	42.2	0	0	---	0.00	29.968 
22:20	60.7	60.7	60.7	51	42.5	0	0	---	0.00	29.968 
22:25	60.5	60.5	60.5	53	43.3	0	0	---	0.00	29.968 
22:30	60.1	60.1	60.1	54	43.4	0	0	---	0.00	29.969 
22:35	59.8	59.8	59.8	55	43.6	0	0	---	0.00	29.969 
22:40	59.5	59.5	59.5	56	43.8	0	0	---	0.00	29.969 
22:45	59.2	59.2	59.2	56	43.5	0	0	---	0.00	29.970 
22:50	58.9	58.9	58.9	58	44.1	0	0	---	0.00	29.970 
22:55	58.6	58.6	58.6	58	43.9	0	0	---	0.00	29.970 
23:00	58.4	58.4	58.4	59	44.1	0	0	---	0.00	29.974 
23:05	58.1	58.1	58.1	59	43.8	0	0	---	0.00	29.974 
23:10	58.0	58.0	58.0	61	44.6	0	1	90	0.00	29.974 
23:15	57.6	57.6	57.6	60	43.8	0	0	---	0.00	29.975 
23:20	57.3	57.3	57.3	60	43.5	0	0	---	0.00	29.975 
23:25	57.0	57.0	57.0	61	43.7	0	0	---	0.00	29.975 
23:30	56.7	56.7	56.7	60	43.0	0	0	---	0.00	29.971 
23:35	56.6	56.6	56.6	62	43.7	0	0	---	0.00	29.971 
23:40	56.3	56.3	56.3	62	43.4	0	0	---	0.00	29.971 
23:45	56.2	56.2	56.2	63	43.8	0	0	---	0.00	29.970 
23:50	56.0	56.0	56.0	63	43.6	0	0	---	0.00	29.970 
23:55	55.7	55.7	55.7	64	43.7	0	0	---	0.00	29.970 

CoCoRaHS
IN-AL-39
A2 Web Hosting
Creative Commons License
GoDaddy
search engine by freefind advanced

loaded 2018-11-22 06:45:46 • last modified 2010-11-18 10:43:29
Privacy PolicyDisclaimer
• wx.awcolley.com is powered by PmWiki v.2002016 •
• all content (unless otherwise noted) © 2018 A W Colley